EDT,Max TemperatureF,Mean TemperatureF,Min TemperatureF,Max Dew PointF,MeanDew PointF,Min DewpointF,Max Humidity, Mean Humidity, Min Humidity, Max Sea Level PressureIn, Mean Sea Level PressureIn, Min Sea Level PressureIn, Max VisibilityMiles, Mean VisibilityMiles, Min VisibilityMiles, Max Wind SpeedMPH, Mean Wind SpeedMPH, Max Gust SpeedMPH,PrecipitationIn, CloudCover, Events, WindDirDegrees
2012-9-1,81,68,56,64,56,50,97,65,33,30.12,30.09,30.00,10,10,10,12,6,,0.00,1,,330
2012-9-2,81,66,52,58,54,51,96,68,34,30.12,30.09,30.04,10,10,10,7,3,,0.00,2,,77
2012-9-3,73,68,63,67,63,57,100,85,73,30.12,30.09,30.05,10,10,6,16,7,18,0.04,7,Rain,132
2012-9-4,79,72,66,72,68,64,100,92,74,30.05,29.91,29.79,10,8,2,15,8,,0.39,8,Rain-Thunderstorm,171
2012-9-5,75,68,61,67,64,61,100,92,62,29.91,29.86,29.80,10,8,0,16,9,17,0.00,7,Fog-Rain,327
2012-9-6,82,72,61,67,63,59,100,85,54,29.96,29.90,29.86,10,9,5,9,4,,0.07,4,Rain-Thunderstorm,145
2012-9-7,81,70,60,65,62,58,100,81,47,29.96,29.91,29.79,10,8,2,9,2,,0.00,2,,133
2012-9-8,74,66,55,66,61,52,96,85,69,29.81,29.67,29.56,10,9,5,21,11,32,0.24,4,Rain,212
2012-9-9,68,58,45,55,51,45,100,87,52,30.00,29.89,29.83,10,8,1,14,2,,0.00,3,Rain,341
2012-9-10,63,52,41,50,44,41,100,78,43,30.18,30.10,30.01,10,10,10,18,4,23,0.00,3,,351
2012-9-11,72,56,39,54,44,39,100,74,36,30.31,30.27,30.19,10,10,10,8,4,,0.00,0,,68
2012-9-12,77,62,46,53,49,45,96,67,36,30.36,30.32,30.29,10,10,6,9,6,,0.00,0,,133
2012-9-13,81,66,50,61,54,48,93,72,41,30.35,30.31,30.26,10,10,10,12,5,,0.00,0,,140
2012-9-14,81,68,54,61,56,53,100,79,49,30.26,30.18,30.07,10,10,5,30,7,38,0.30,3,Rain,174
2012-9-15,63,55,47,54,49,46,100,82,58,30.24,30.20,30.16,10,10,10,13,7,17,0.00,5,,299
2012-9-16,66,54,43,54,48,44,100,83,50,30.18,30.13,30.08,10,10,9,10,2,,0.00,3,Fog,344
2012-9-17,73,60,46,54,49,46,100,71,43,30.12,30.05,29.95,10,10,10,15,6,20,0.00,1,,130
2012-9-18,70,62,52,66,60,46,100,89,70,29.91,29.69,29.49,10,7,2,23,11,36,0.72,7,Rain,180
2012-9-19,56,48,41,45,43,40,100,81,55,30.22,30.08,29.86,10,10,10,13,6,,0.00,2,Fog,9
2012-9-20,66,52,38,48,43,38,97,71,47,30.21,30.12,30.04,10,10,10,17,5,25,0.00,1,,161
2012-9-21,70,62,55,60,54,48,97,76,61,30.04,29.99,29.93,10,9,3,15,12,21,0.15,6,Rain,160
2012-9-22,66,58,48,61,54,44,97,84,63,29.99,29.82,29.76,10,9,5,22,11,29,0.26,5,Rain,211
2012-9-23,57,49,41,45,40,36,97,75,49,30.17,30.07,29.96,10,10,10,14,5,,0.01,4,,291
2012-9-24,59,49,39,41,39,37,97,71,44,30.20,30.14,30.08,10,10,10,12,3,,0.00,4,,228
2012-9-25,68,56,44,49,40,37,77,58,37,30.11,30.08,30.03,10,10,10,15,10,21,0.00,2,Rain,172
2012-9-26,63,58,54,60,55,50,100,90,84,30.11,30.03,30.00,10,9,5,15,8,22,0.07,8,Rain,172
2012-9-27,61,52,43,55,46,41,97,76,60,30.26,30.20,30.12,10,10,5,10,5,,0.00,4,Fog,339
2012-9-28,54,51,48,54,50,46,100,97,86,30.18,30.09,30.05,10,6,0,10,3,,0.01,8,Fog-Rain,336
2012-9-29,61,51,41,50,45,40,100,80,57,30.04,30.00,29.95,10,10,10,13,5,,0.00,5,,336
2012-9-30,52,46,39,49,45,39,100,94,83,29.94,29.88,29.83,10,8,4,10,2,,0.03,6,Rain,291